sensor_id;sensor_type;location;lat;lon;timestamp;P1;durP1;ratioP1;P2;durP2;ratioP2
60704;SDS011;46545;38.014;-7.874;2023-04-24T00:00:57;7.15;;;1.55;;
60704;SDS011;46545;38.014;-7.874;2023-04-24T00:02:57;10.38;;;1.80;;
60704;SDS011;46545;38.014;-7.874;2023-04-24T00:04:58;6.32;;;1.60;;
60704;SDS011;46545;38.014;-7.874;2023-04-24T00:07:02;10.05;;;2.30;;
60704;SDS011;46545;38.014;-7.874;2023-04-24T00:09:03;9.43;;;1.75;;
60704;SDS011;46545;38.014;-7.874;2023-04-24T00:11:04;5.90;;;2.58;;
60704;SDS011;46545;38.014;-7.874;2023-04-24T00:13:04;3.90;;;1.58;;
60704;SDS011;46545;38.014;-7.874;2023-04-24T00:15:05;6.97;;;1.90;;
60704;SDS011;46545;38.014;-7.874;2023-04-24T00:17:05;6.75;;;2.35;;
60704;SDS011;46545;38.014;-7.874;2023-04-24T00:19:06;8.45;;;1.95;;
60704;SDS011;46545;38.014;-7.874;2023-04-24T00:21:06;4.63;;;2.17;;
60704;SDS011;46545;38.014;-7.874;2023-04-24T00:23:07;8.95;;;2.13;;
60704;SDS011;46545;38.014;-7.874;2023-04-24T00:25:08;8.35;;;2.70;;
60704;SDS011;46545;38.014;-7.874;2023-04-24T00:27:08;5.10;;;1.92;;
60704;SDS011;46545;38.014;-7.874;2023-04-24T00:29:09;6.38;;;2.30;;
60704;SDS011;46545;38.014;-7.874;2023-04-24T00:31:09;7.53;;;2.58;;
60704;SDS011;46545;38.014;-7.874;2023-04-24T00:33:10;6.72;;;1.92;;
60704;SDS011;46545;38.014;-7.874;2023-04-24T00:35:10;7.13;;;2.22;;
60704;SDS011;46545;38.014;-7.874;2023-04-24T00:37:11;5.95;;;2.03;;
60704;SDS011;46545;38.014;-7.874;2023-04-24T00:39:11;14.13;;;2.20;;
60704;SDS011;46545;38.014;-7.874;2023-04-24T00:41:12;8.43;;;2.10;;
60704;SDS011;46545;38.014;-7.874;2023-04-24T00:43:13;4.18;;;1.70;;
60704;SDS011;46545;38.014;-7.874;2023-04-24T00:45:13;3.63;;;1.70;;
60704;SDS011;46545;38.014;-7.874;2023-04-24T00:47:13;8.30;;;2.47;;
60704;SDS011;46545;38.014;-7.874;2023-04-24T00:49:14;8.18;;;1.95;;
60704;SDS011;46545;38.014;-7.874;2023-04-24T00:51:15;6.68;;;2.38;;
60704;SDS011;46545;38.014;-7.874;2023-04-24T00:53:15;7.47;;;1.77;;
60704;SDS011;46545;38.014;-7.874;2023-04-24T00:55:16;8.45;;;2.22;;
60704;SDS011;46545;38.014;-7.874;2023-04-24T00:57:17;4.88;;;2.08;;
60704;SDS011;46545;38.014;-7.874;2023-04-24T00:59:18;4.50;;;2.03;;
60704;SDS011;46545;38.014;-7.874;2023-04-24T01:01:21;5.57;;;1.58;;
60704;SDS011;46545;38.014;-7.874;2023-04-24T01:03:22;7.43;;;2.10;;
60704;SDS011;46545;38.014;-7.874;2023-04-24T01:05:24;8.35;;;2.30;;
60704;SDS011;46545;38.014;-7.874;2023-04-24T01:07:25;8.73;;;1.98;;
60704;SDS011;46545;38.014;-7.874;2023-04-24T01:09:26;6.93;;;2.25;;
60704;SDS011;46545;38.014;-7.874;2023-04-24T01:11:26;5.03;;;1.88;;
60704;SDS011;46545;38.014;-7.874;2023-04-24T01:13:27;6.50;;;1.90;;
60704;SDS011;46545;38.014;-7.874;2023-04-24T01:15:27;5.07;;;2.10;;
60704;SDS011;46545;38.014;-7.874;2023-04-24T01:17:28;3.17;;;1.70;;
60704;SDS011;46545;38.014;-7.874;2023-04-24T01:19:28;4.03;;;2.03;;
60704;SDS011;46545;38.014;-7.874;2023-04-24T01:21:30;5.53;;;2.13;;
60704;SDS011;46545;38.014;-7.874;2023-04-24T01:23:35;6.18;;;2.10;;
60704;SDS011;46545;38.014;-7.874;2023-04-24T01:25:35;10.93;;;2.03;;
60704;SDS011;46545;38.014;-7.874;2023-04-24T01:27:36;4.85;;;2.08;;
60704;SDS011;46545;38.014;-7.874;2023-04-24T01:29:36;9.13;;;2.05;;
60704;SDS011;46545;38.014;-7.874;2023-04-24T01:31:37;4.82;;;2.20;;
60704;SDS011;46545;38.014;-7.874;2023-04-24T01:33:38;5.70;;;2.05;;
60704;SDS011;46545;38.014;-7.874;2023-04-24T01:35:38;9.25;;;2.53;;
60704;SDS011;46545;38.014;-7.874;2023-04-24T01:37:39;12.43;;;2.45;;
60704;SDS011;46545;38.014;-7.874;2023-04-24T01:39:40;4.57;;;2.10;;
60704;SDS011;46545;38.014;-7.874;2023-04-24T01:41:40;9.10;;;2.63;;
60704;SDS011;46545;38.014;-7.874;2023-04-24T01:43:41;9.52;;;2.15;;
60704;SDS011;46545;38.014;-7.874;2023-04-24T01:45:41;8.23;;;2.53;;
60704;SDS011;46545;38.014;-7.874;2023-04-24T01:47:41;10.00;;;2.13;;
60704;SDS011;46545;38.014;-7.874;2023-04-24T01:49:42;6.43;;;2.78;;
60704;SDS011;46545;38.014;-7.874;2023-04-24T01:51:42;9.93;;;2.30;;
60704;SDS011;46545;38.014;-7.874;2023-04-24T01:53:43;9.02;;;2.00;;
60704;SDS011;46545;38.014;-7.874;2023-04-24T01:55:43;8.80;;;2.47;;
60704;SDS011;46545;38.014;-7.874;2023-04-24T01:57:46;4.90;;;2.42;;
60704;SDS011;46545;38.014;-7.874;2023-04-24T01:59:47;5.70;;;2.22;;
60704;SDS011;46545;38.014;-7.874;2023-04-24T02:01:48;6.90;;;1.98;;
60704;SDS011;46545;38.014;-7.874;2023-04-24T02:03:52;5.82;;;2.33;;
60704;SDS011;46545;38.014;-7.874;2023-04-24T02:05:53;5.68;;;2.17;;
60704;SDS011;46545;38.014;-7.874;2023-04-24T02:07:53;8.63;;;2.50;;
60704;SDS011;46545;38.014;-7.874;2023-04-24T02:09:54;6.28;;;2.75;;
60704;SDS011;46545;38.014;-7.874;2023-04-24T02:11:55;8.80;;;2.28;;
60704;SDS011;46545;38.014;-7.874;2023-04-24T02:13:58;8.25;;;2.15;;
60704;SDS011;46545;38.014;-7.874;2023-04-24T02:15:58;8.82;;;3.95;;
60704;SDS011;46545;38.014;-7.874;2023-04-24T02:17:59;8.77;;;2.33;;
60704;SDS011;46545;38.014;-7.874;2023-04-24T02:19:59;6.78;;;2.67;;
60704;SDS011;46545;38.014;-7.874;2023-04-24T02:22:00;5.22;;;1.90;;
60704;SDS011;46545;38.014;-7.874;2023-04-24T02:24:01;13.32;;;2.50;;
60704;SDS011;46545;38.014;-7.874;2023-04-24T02:26:02;14.98;;;2.67;;
60704;SDS011;46545;38.014;-7.874;2023-04-24T02:28:02;11.32;;;2.28;;
60704;SDS011;46545;38.014;-7.874;2023-04-24T02:30:03;6.38;;;2.15;;
60704;SDS011;46545;38.014;-7.874;2023-04-24T02:32:03;7.07;;;2.30;;
60704;SDS011;46545;38.014;-7.874;2023-04-24T02:34:04;6.63;;;2.13;;
60704;SDS011;46545;38.014;-7.874;2023-04-24T02:36:05;9.10;;;2.95;;
60704;SDS011;46545;38.014;-7.874;2023-04-24T02:38:05;5.97;;;2.22;;
60704;SDS011;46545;38.014;-7.874;2023-04-24T02:40:06;7.60;;;2.53;;
60704;SDS011;46545;38.014;-7.874;2023-04-24T02:42:07;5.63;;;2.30;;
60704;SDS011;46545;38.014;-7.874;2023-04-24T02:44:09;4.28;;;2.08;;
60704;SDS011;46545;38.014;-7.874;2023-04-24T02:46:10;7.07;;;2.58;;
60704;SDS011;46545;38.014;-7.874;2023-04-24T02:48:10;8.55;;;1.92;;
60704;SDS011;46545;38.014;-7.874;2023-04-24T02:50:11;5.25;;;2.33;;
60704;SDS011;46545;38.014;-7.874;2023-04-24T02:52:11;9.27;;;2.50;;
60704;SDS011;46545;38.014;-7.874;2023-04-24T02:54:12;5.97;;;3.35;;
60704;SDS011;46545;38.014;-7.874;2023-04-24T02:56:12;7.55;;;2.85;;
60704;SDS011;46545;38.014;-7.874;2023-04-24T02:58:13;6.35;;;2.53;;
60704;SDS011;46545;38.014;-7.874;2023-04-24T03:00:13;9.30;;;2.47;;
60704;SDS011;46545;38.014;-7.874;2023-04-24T03:02:14;10.43;;;3.10;;
60704;SDS011;46545;38.014;-7.874;2023-04-24T03:04:15;8.23;;;3.20;;
60704;SDS011;46545;38.014;-7.874;2023-04-24T03:06:15;6.25;;;2.05;;
60704;SDS011;46545;38.014;-7.874;2023-04-24T03:08:16;9.93;;;2.47;;
60704;SDS011;46545;38.014;-7.874;2023-04-24T03:10:16;12.15;;;2.83;;
60704;SDS011;46545;38.014;-7.874;2023-04-24T03:12:17;11.38;;;3.08;;
60704;SDS011;46545;38.014;-7.874;2023-04-24T03:14:20;7.88;;;2.90;;
60704;SDS011;46545;38.014;-7.874;2023-04-24T03:16:20;8.95;;;2.97;;
60704;SDS011;46545;38.014;-7.874;2023-04-24T03:18:21;9.73;;;2.63;;
60704;SDS011;46545;38.014;-7.874;2023-04-24T03:20:23;7.07;;;2.03;;
60704;SDS011;46545;38.014;-7.874;2023-04-24T03:22:24;8.63;;;2.47;;
60704;SDS011;46545;38.014;-7.874;2023-04-24T03:24:26;3.85;;;2.22;;
60704;SDS011;46545;38.014;-7.874;2023-04-24T03:26:29;5.93;;;2.57;;
60704;SDS011;46545;38.014;-7.874;2023-04-24T03:28:46;7.97;;;2.38;;
60704;SDS011;46545;38.014;-7.874;2023-04-24T03:30:47;7.65;;;3.17;;
60704;SDS011;46545;38.014;-7.874;2023-04-24T03:32:48;9.63;;;2.53;;
60704;SDS011;46545;38.014;-7.874;2023-04-24T03:34:54;5.32;;;2.45;;
60704;SDS011;46545;38.014;-7.874;2023-04-24T03:36:55;11.80;;;2.95;;
60704;SDS011;46545;38.014;-7.874;2023-04-24T03:38:55;6.03;;;2.70;;
60704;SDS011;46545;38.014;-7.874;2023-04-24T03:41:00;9.80;;;2.25;;
60704;SDS011;46545;38.014;-7.874;2023-04-24T03:43:17;8.30;;;2.83;;
60704;SDS011;46545;38.014;-7.874;2023-04-24T03:45:18;5.43;;;2.65;;
60704;SDS011;46545;38.014;-7.874;2023-04-24T03:49:23;6.47;;;2.53;;
60704;SDS011;46545;38.014;-7.874;2023-04-24T03:51:24;7.78;;;2.35;;
60704;SDS011;46545;38.014;-7.874;2023-04-24T03:53:29;9.15;;;2.42;;
60704;SDS011;46545;38.014;-7.874;2023-04-24T03:55:30;8.05;;;2.40;;
60704;SDS011;46545;38.014;-7.874;2023-04-24T03:57:30;9.65;;;3.05;;
60704;SDS011;46545;38.014;-7.874;2023-04-24T03:59:40;11.00;;;2.85;;
60704;SDS011;46545;38.014;-7.874;2023-04-24T04:01:47;15.82;;;4.75;;
60704;SDS011;46545;38.014;-7.874;2023-04-24T04:03:50;8.95;;;2.75;;
60704;SDS011;46545;38.014;-7.874;2023-04-24T04:05:54;6.97;;;2.38;;
60704;SDS011;46545;38.014;-7.874;2023-04-24T04:07:54;7.78;;;2.55;;
60704;SDS011;46545;38.014;-7.874;2023-04-24T04:09:55;5.65;;;2.28;;
60704;SDS011;46545;38.014;-7.874;2023-04-24T04:11:57;8.82;;;2.50;;
60704;SDS011;46545;38.014;-7.874;2023-04-24T04:13:57;10.00;;;2.40;;
60704;SDS011;46545;38.014;-7.874;2023-04-24T04:15:58;10.05;;;2.78;;
60704;SDS011;46545;38.014;-7.874;2023-04-24T04:17:59;11.30;;;2.85;;
60704;SDS011;46545;38.014;-7.874;2023-04-24T04:19:59;5.22;;;1.85;;
60704;SDS011;46545;38.014;-7.874;2023-04-24T04:22:01;4.57;;;2.70;;
60704;SDS011;46545;38.014;-7.874;2023-04-24T04:24:10;9.15;;;3.53;;
60704;SDS011;46545;38.014;-7.874;2023-04-24T04:26:16;5.32;;;2.50;;
60704;SDS011;46545;38.014;-7.874;2023-04-24T04:28:31;5.38;;;2.42;;
60704;SDS011;46545;38.014;-7.874;2023-04-24T04:30:32;7.05;;;2.65;;
60704;SDS011;46545;38.014;-7.874;2023-04-24T04:32:36;9.65;;;1.95;;
60704;SDS011;46545;38.014;-7.874;2023-04-24T04:34:38;8.00;;;2.53;;
60704;SDS011;46545;38.014;-7.874;2023-04-24T04:39:12;4.90;;;2.30;;
60704;SDS011;46545;38.014;-7.874;2023-04-24T04:41:32;6.40;;;2.20;;
60704;SDS011;46545;38.014;-7.874;2023-04-24T04:43:36;6.75;;;2.67;;
60704;SDS011;46545;38.014;-7.874;2023-04-24T04:45:37;14.77;;;2.45;;
60704;SDS011;46545;38.014;-7.874;2023-04-24T04:48:11;4.70;;;2.63;;
60704;SDS011;46545;38.014;-7.874;2023-04-24T04:50:14;8.93;;;2.60;;
60704;SDS011;46545;38.014;-7.874;2023-04-24T04:52:14;7.45;;;2.50;;
60704;SDS011;46545;38.014;-7.874;2023-04-24T04:54:17;6.93;;;2.17;;
60704;SDS011;46545;38.014;-7.874;2023-04-24T04:56:18;7.50;;;2.72;;
60704;SDS011;46545;38.014;-7.874;2023-04-24T04:58:20;16.30;;;2.47;;
60704;SDS011;46545;38.014;-7.874;2023-04-24T05:00:24;7.15;;;3.28;;
60704;SDS011;46545;38.014;-7.874;2023-04-24T05:02:26;7.97;;;2.53;;
60704;SDS011;46545;38.014;-7.874;2023-04-24T05:04:27;7.13;;;3.38;;
60704;SDS011;46545;38.014;-7.874;2023-04-24T05:06:27;8.38;;;2.72;;
60704;SDS011;46545;38.014;-7.874;2023-04-24T05:08:28;7.18;;;2.30;;
60704;SDS011;46545;38.014;-7.874;2023-04-24T05:10:29;5.20;;;2.35;;
60704;SDS011;46545;38.014;-7.874;2023-04-24T05:12:31;5.65;;;3.15;;
60704;SDS011;46545;38.014;-7.874;2023-04-24T05:14:32;8.23;;;2.72;;
60704;SDS011;46545;38.014;-7.874;2023-04-24T05:16:33;8.10;;;2.35;;
60704;SDS011;46545;38.014;-7.874;2023-04-24T05:18:33;8.77;;;3.30;;
60704;SDS011;46545;38.014;-7.874;2023-04-24T05:20:34;5.50;;;2.28;;
60704;SDS011;46545;38.014;-7.874;2023-04-24T05:22:35;6.15;;;2.42;;
60704;SDS011;46545;38.014;-7.874;2023-04-24T05:24:37;8.07;;;2.58;;
60704;SDS011;46545;38.014;-7.874;2023-04-24T05:26:58;7.80;;;2.20;;
60704;SDS011;46545;38.014;-7.874;2023-04-24T05:29:04;9.05;;;2.95;;
60704;SDS011;46545;38.014;-7.874;2023-04-24T05:31:05;4.25;;;2.10;;
60704;SDS011;46545;38.014;-7.874;2023-04-24T05:33:06;9.98;;;3.08;;
60704;SDS011;46545;38.014;-7.874;2023-04-24T05:35:09;9.88;;;2.95;;
60704;SDS011;46545;38.014;-7.874;2023-04-24T05:37:10;12.70;;;2.75;;
60704;SDS011;46545;38.014;-7.874;2023-04-24T05:39:11;8.70;;;2.58;;
60704;SDS011;46545;38.014;-7.874;2023-04-24T05:41:11;5.75;;;2.33;;
60704;SDS011;46545;38.014;-7.874;2023-04-24T05:43:12;14.93;;;3.10;;
60704;SDS011;46545;38.014;-7.874;2023-04-24T05:45:13;7.43;;;2.15;;
60704;SDS011;46545;38.014;-7.874;2023-04-24T05:47:17;5.78;;;2.08;;
60704;SDS011;46545;38.014;-7.874;2023-04-24T05:49:17;8.48;;;1.92;;
60704;SDS011;46545;38.014;-7.874;2023-04-24T05:51:19;8.35;;;2.72;;
60704;SDS011;46545;38.014;-7.874;2023-04-24T05:53:19;11.07;;;3.00;;
60704;SDS011;46545;38.014;-7.874;2023-04-24T05:55:20;6.00;;;2.33;;
60704;SDS011;46545;38.014;-7.874;2023-04-24T05:57:22;4.72;;;2.47;;
60704;SDS011;46545;38.014;-7.874;2023-04-24T05:59:38;5.28;;;2.35;;
60704;SDS011;46545;38.014;-7.874;2023-04-24T06:01:38;7.43;;;2.30;;
60704;SDS011;46545;38.014;-7.874;2023-04-24T06:03:45;9.85;;;2.45;;
60704;SDS011;46545;38.014;-7.874;2023-04-24T06:05:46;9.23;;;2.17;;
60704;SDS011;46545;38.014;-7.874;2023-04-24T06:07:47;6.90;;;2.40;;
60704;SDS011;46545;38.014;-7.874;2023-04-24T06:09:48;10.23;;;2.53;;
60704;SDS011;46545;38.014;-7.874;2023-04-24T06:11:50;10.23;;;2.42;;
60704;SDS011;46545;38.014;-7.874;2023-04-24T06:13:54;8.57;;;2.85;;
60704;SDS011;46545;38.014;-7.874;2023-04-24T06:16:13;14.48;;;2.65;;
60704;SDS011;46545;38.014;-7.874;2023-04-24T06:18:17;5.95;;;2.50;;
60704;SDS011;46545;38.014;-7.874;2023-04-24T06:20:18;7.03;;;2.05;;
60704;SDS011;46545;38.014;-7.874;2023-04-24T06:22:18;5.82;;;2.35;;
60704;SDS011;46545;38.014;-7.874;2023-04-24T06:24:18;9.13;;;2.08;;
60704;SDS011;46545;38.014;-7.874;2023-04-24T06:26:19;7.43;;;2.50;;
60704;SDS011;46545;38.014;-7.874;2023-04-24T06:28:20;5.25;;;2.33;;
60704;SDS011;46545;38.014;-7.874;2023-04-24T06:30:20;4.40;;;1.88;;
60704;SDS011;46545;38.014;-7.874;2023-04-24T06:32:21;7.65;;;2.45;;
60704;SDS011;46545;38.014;-7.874;2023-04-24T06:34:22;10.02;;;2.33;;
60704;SDS011;46545;38.014;-7.874;2023-04-24T06:36:22;4.40;;;2.55;;
60704;SDS011;46545;38.014;-7.874;2023-04-24T06:38:23;8.50;;;2.95;;
60704;SDS011;46545;38.014;-7.874;2023-04-24T06:40:23;7.15;;;2.42;;
60704;SDS011;46545;38.014;-7.874;2023-04-24T06:42:24;6.30;;;2.05;;
60704;SDS011;46545;38.014;-7.874;2023-04-24T06:44:25;8.93;;;2.47;;
60704;SDS011;46545;38.014;-7.874;2023-04-24T06:46:25;4.60;;;2.13;;
60704;SDS011;46545;38.014;-7.874;2023-04-24T06:48:27;4.80;;;1.85;;
60704;SDS011;46545;38.014;-7.874;2023-04-24T06:50:28;6.15;;;2.05;;
60704;SDS011;46545;38.014;-7.874;2023-04-24T06:52:28;4.40;;;1.98;;
60704;SDS011;46545;38.014;-7.874;2023-04-24T06:54:30;8.35;;;2.10;;
60704;SDS011;46545;38.014;-7.874;2023-04-24T06:56:31;7.30;;;2.20;;
60704;SDS011;46545;38.014;-7.874;2023-04-24T06:58:31;9.05;;;2.58;;
60704;SDS011;46545;38.014;-7.874;2023-04-24T07:00:32;5.35;;;2.00;;
60704;SDS011;46545;38.014;-7.874;2023-04-24T07:02:32;4.78;;;2.35;;
60704;SDS011;46545;38.014;-7.874;2023-04-24T07:04:33;6.68;;;1.92;;
60704;SDS011;46545;38.014;-7.874;2023-04-24T07:06:33;6.05;;;2.05;;
60704;SDS011;46545;38.014;-7.874;2023-04-24T07:08:36;5.00;;;1.45;;
60704;SDS011;46545;38.014;-7.874;2023-04-24T07:10:36;5.85;;;1.58;;
60704;SDS011;46545;38.014;-7.874;2023-04-24T07:12:37;6.35;;;1.85;;
60704;SDS011;46545;38.014;-7.874;2023-04-24T07:14:37;9.05;;;1.25;;
60704;SDS011;46545;38.014;-7.874;2023-04-24T07:16:38;2.05;;;1.10;;
60704;SDS011;46545;38.014;-7.874;2023-04-24T07:18:38;10.63;;;2.55;;
60704;SDS011;46545;38.014;-7.874;2023-04-24T07:20:39;8.18;;;1.70;;
60704;SDS011;46545;38.014;-7.874;2023-04-24T07:22:40;4.10;;;1.52;;
60704;SDS011;46545;38.014;-7.874;2023-04-24T07:24:41;4.40;;;1.33;;
60704;SDS011;46545;38.014;-7.874;2023-04-24T07:26:42;7.10;;;1.35;;
60704;SDS011;46545;38.014;-7.874;2023-04-24T07:28:42;3.90;;;1.45;;
60704;SDS011;46545;38.014;-7.874;2023-04-24T07:30:43;4.10;;;1.05;;
60704;SDS011;46545;38.014;-7.874;2023-04-24T07:32:43;7.75;;;1.25;;
60704;SDS011;46545;38.014;-7.874;2023-04-24T07:34:44;4.07;;;1.17;;
60704;SDS011;46545;38.014;-7.874;2023-04-24T07:36:44;7.25;;;1.92;;
60704;SDS011;46545;38.014;-7.874;2023-04-24T07:38:45;4.47;;;1.30;;
60704;SDS011;46545;38.014;-7.874;2023-04-24T07:40:46;3.17;;;1.40;;
60704;SDS011;46545;38.014;-7.874;2023-04-24T07:42:46;3.72;;;1.30;;
60704;SDS011;46545;38.014;-7.874;2023-04-24T07:44:48;4.10;;;1.35;;
60704;SDS011;46545;38.014;-7.874;2023-04-24T07:46:49;3.65;;;1.30;;
60704;SDS011;46545;38.014;-7.874;2023-04-24T07:48:49;4.22;;;1.30;;
60704;SDS011;46545;38.014;-7.874;2023-04-24T07:50:50;4.57;;;1.35;;
60704;SDS011;46545;38.014;-7.874;2023-04-24T07:52:50;3.72;;;1.02;;
60704;SDS011;46545;38.014;-7.874;2023-04-24T07:54:51;3.13;;;1.40;;
60704;SDS011;46545;38.014;-7.874;2023-04-24T07:56:58;5.30;;;1.30;;
60704;SDS011;46545;38.014;-7.874;2023-04-24T07:58:58;4.68;;;1.00;;
60704;SDS011;46545;38.014;-7.874;2023-04-24T08:00:59;2.17;;;1.20;;
60704;SDS011;46545;38.014;-7.874;2023-04-24T08:02:59;6.55;;;1.38;;
60704;SDS011;46545;38.014;-7.874;2023-04-24T08:05:00;4.68;;;1.40;;
60704;SDS011;46545;38.014;-7.874;2023-04-24T08:07:00;6.72;;;1.33;;
60704;SDS011;46545;38.014;-7.874;2023-04-24T08:09:01;5.50;;;1.70;;
60704;SDS011;46545;38.014;-7.874;2023-04-24T08:11:01;3.97;;;1.25;;
60704;SDS011;46545;38.014;-7.874;2023-04-24T08:13:02;3.10;;;1.15;;
60704;SDS011;46545;38.014;-7.874;2023-04-24T08:15:02;2.45;;;1.10;;
60704;SDS011;46545;38.014;-7.874;2023-04-24T08:17:03;3.42;;;1.25;;
60704;SDS011;46545;38.014;-7.874;2023-04-24T08:19:03;1.95;;;1.05;;
60704;SDS011;46545;38.014;-7.874;2023-04-24T08:21:04;5.78;;;1.00;;
60704;SDS011;46545;38.014;-7.874;2023-04-24T08:23:04;2.45;;;1.25;;
60704;SDS011;46545;38.014;-7.874;2023-04-24T08:25:05;4.47;;;1.10;;
60704;SDS011;46545;38.014;-7.874;2023-04-24T08:27:06;1.80;;;1.00;;
60704;SDS011;46545;38.014;-7.874;2023-04-24T08:29:06;2.38;;;0.88;;
60704;SDS011;46545;38.014;-7.874;2023-04-24T08:31:07;4.80;;;1.15;;
60704;SDS011;46545;38.014;-7.874;2023-04-24T08:33:07;3.40;;;1.50;;
60704;SDS011;46545;38.014;-7.874;2023-04-24T08:35:08;2.25;;;1.05;;
60704;SDS011;46545;38.014;-7.874;2023-04-24T08:37:09;3.40;;;1.40;;
60704;SDS011;46545;38.014;-7.874;2023-04-24T08:39:10;3.28;;;1.30;;
60704;SDS011;46545;38.014;-7.874;2023-04-24T08:41:10;6.20;;;1.30;;
60704;SDS011;46545;38.014;-7.874;2023-04-24T08:43:11;8.65;;;1.35;;
60704;SDS011;46545;38.014;-7.874;2023-04-24T08:45:12;2.58;;;1.00;;
60704;SDS011;46545;38.014;-7.874;2023-04-24T08:47:13;5.15;;;1.10;;
60704;SDS011;46545;38.014;-7.874;2023-04-24T08:49:15;4.28;;;1.10;;
60704;SDS011;46545;38.014;-7.874;2023-04-24T08:51:18;5.65;;;1.92;;
60704;SDS011;46545;38.014;-7.874;2023-04-24T08:53:20;4.72;;;1.13;;
60704;SDS011;46545;38.014;-7.874;2023-04-24T08:55:20;2.88;;;1.08;;
60704;SDS011;46545;38.014;-7.874;2023-04-24T08:57:21;2.45;;;1.17;;
60704;SDS011;46545;38.014;-7.874;2023-04-24T08:59:22;4.30;;;1.42;;
60704;SDS011;46545;38.014;-7.874;2023-04-24T09:01:23;3.83;;;1.30;;
60704;SDS011;46545;38.014;-7.874;2023-04-24T09:03:25;4.38;;;1.27;;
60704;SDS011;46545;38.014;-7.874;2023-04-24T09:05:27;3.42;;;0.88;;
60704;SDS011;46545;38.014;-7.874;2023-04-24T09:07:28;6.35;;;1.10;;
60704;SDS011;46545;38.014;-7.874;2023-04-24T09:09:30;2.17;;;0.85;;
60704;SDS011;46545;38.014;-7.874;2023-04-24T09:11:32;2.45;;;0.90;;
60704;SDS011;46545;38.014;-7.874;2023-04-24T09:13:33;1.83;;;0.65;;
60704;SDS011;46545;38.014;-7.874;2023-04-24T09:15:33;3.17;;;1.13;;
60704;SDS011;46545;38.014;-7.874;2023-04-24T09:17:34;4.72;;;0.93;;
60704;SDS011;46545;38.014;-7.874;2023-04-24T09:19:35;2.75;;;1.13;;
60704;SDS011;46545;38.014;-7.874;2023-04-24T09:21:36;2.65;;;1.08;;
60704;SDS011;46545;38.014;-7.874;2023-04-24T09:23:36;4.47;;;1.48;;
60704;SDS011;46545;38.014;-7.874;2023-04-24T09:25:36;4.00;;;1.10;;
60704;SDS011;46545;38.014;-7.874;2023-04-24T09:27:38;5.13;;;1.38;;
60704;SDS011;46545;38.014;-7.874;2023-04-24T09:29:53;3.38;;;1.10;;
60704;SDS011;46545;38.014;-7.874;2023-04-24T09:31:53;1.25;;;0.88;;
60704;SDS011;46545;38.014;-7.874;2023-04-24T09:33:54;2.10;;;1.05;;
60704;SDS011;46545;38.014;-7.874;2023-04-24T09:35:56;3.15;;;0.80;;
60704;SDS011;46545;38.014;-7.874;2023-04-24T09:37:56;2.55;;;1.52;;
60704;SDS011;46545;38.014;-7.874;2023-04-24T09:40:17;4.97;;;1.23;;
60704;SDS011;46545;38.014;-7.874;2023-04-24T09:42:17;4.60;;;1.15;;
60704;SDS011;46545;38.014;-7.874;2023-04-24T09:44:23;3.25;;;1.10;;
60704;SDS011;46545;38.014;-7.874;2023-04-24T09:46:30;3.22;;;1.15;;
60704;SDS011;46545;38.014;-7.874;2023-04-24T09:48:35;2.95;;;1.08;;
60704;SDS011;46545;38.014;-7.874;2023-04-24T09:50:35;4.38;;;1.23;;
60704;SDS011;46545;38.014;-7.874;2023-04-24T09:52:39;4.10;;;1.13;;
60704;SDS011;46545;38.014;-7.874;2023-04-24T09:54:40;7.95;;;1.05;;
60704;SDS011;46545;38.014;-7.874;2023-04-24T09:56:42;2.45;;;1.10;;
60704;SDS011;46545;38.014;-7.874;2023-04-24T09:58:42;2.63;;;1.02;;
60704;SDS011;46545;38.014;-7.874;2023-04-24T10:00:43;3.40;;;1.17;;
60704;SDS011;46545;38.014;-7.874;2023-04-24T10:02:49;1.50;;;0.80;;
60704;SDS011;46545;38.014;-7.874;2023-04-24T10:04:56;3.72;;;0.82;;
60704;SDS011;46545;38.014;-7.874;2023-04-24T10:06:57;3.63;;;1.63;;
60704;SDS011;46545;38.014;-7.874;2023-04-24T10:08:57;1.50;;;0.85;;
60704;SDS011;46545;38.014;-7.874;2023-04-24T10:10:58;1.60;;;0.90;;
60704;SDS011;46545;38.014;-7.874;2023-04-24T10:13:00;3.47;;;0.93;;
60704;SDS011;46545;38.014;-7.874;2023-04-24T10:15:01;5.50;;;2.05;;
60704;SDS011;46545;38.014;-7.874;2023-04-24T10:17:03;4.55;;;0.98;;
60704;SDS011;46545;38.014;-7.874;2023-04-24T10:19:04;3.90;;;0.90;;
60704;SDS011;46545;38.014;-7.874;2023-04-24T10:21:04;4.03;;;1.15;;
60704;SDS011;46545;38.014;-7.874;2023-04-24T10:23:05;1.38;;;0.65;;
60704;SDS011;46545;38.014;-7.874;2023-04-24T10:25:06;2.35;;;0.80;;
60704;SDS011;46545;38.014;-7.874;2023-04-24T10:27:07;3.17;;;0.90;;
60704;SDS011;46545;38.014;-7.874;2023-04-24T10:29:08;3.97;;;1.13;;
60704;SDS011;46545;38.014;-7.874;2023-04-24T10:31:12;2.35;;;1.08;;
60704;SDS011;46545;38.014;-7.874;2023-04-24T10:33:12;3.17;;;0.73;;
60704;SDS011;46545;38.014;-7.874;2023-04-24T10:35:14;3.47;;;0.73;;
60704;SDS011;46545;38.014;-7.874;2023-04-24T10:37:15;4.38;;;0.68;;
60704;SDS011;46545;38.014;-7.874;2023-04-24T10:39:16;1.55;;;0.68;;
60704;SDS011;46545;38.014;-7.874;2023-04-24T10:41:17;4.38;;;0.57;;
60704;SDS011;46545;38.014;-7.874;2023-04-24T10:43:19;3.05;;;0.70;;
60704;SDS011;46545;38.014;-7.874;2023-04-24T10:45:21;1.85;;;0.77;;
60704;SDS011;46545;38.014;-7.874;2023-04-24T10:47:22;1.02;;;0.70;;
60704;SDS011;46545;38.014;-7.874;2023-04-24T10:49:29;2.35;;;0.80;;
60704;SDS011;46545;38.014;-7.874;2023-04-24T10:51:48;4.78;;;1.20;;
60704;SDS011;46545;38.014;-7.874;2023-04-24T10:53:49;2.42;;;0.90;;
60704;SDS011;46545;38.014;-7.874;2023-04-24T10:56:02;2.10;;;0.70;;
60704;SDS011;46545;38.014;-7.874;2023-04-24T10:58:03;3.15;;;0.88;;
60704;SDS011;46545;38.014;-7.874;2023-04-24T11:00:18;1.88;;;0.73;;
60704;SDS011;46545;38.014;-7.874;2023-04-24T11:02:20;1.85;;;0.60;;
60704;SDS011;46545;38.014;-7.874;2023-04-24T11:04:35;2.65;;;0.93;;
60704;SDS011;46545;38.014;-7.874;2023-04-24T11:06:36;1.63;;;1.45;;
60704;SDS011;46545;38.014;-7.874;2023-04-24T11:08:46;1.38;;;0.70;;
60704;SDS011;46545;38.014;-7.874;2023-04-24T11:11:09;1.20;;;0.70;;
60704;SDS011;46545;38.014;-7.874;2023-04-24T11:13:09;1.88;;;0.85;;
60704;SDS011;46545;38.014;-7.874;2023-04-24T11:15:10;2.80;;;0.60;;
60704;SDS011;46545;38.014;-7.874;2023-04-24T11:17:26;4.60;;;0.95;;
60704;SDS011;46545;38.014;-7.874;2023-04-24T11:19:27;0.60;;;0.60;;
60704;SDS011;46545;38.014;-7.874;2023-04-24T11:21:42;1.02;;;0.40;;
60704;SDS011;46545;38.014;-7.874;2023-04-24T11:23:42;0.93;;;0.57;;
60704;SDS011;46545;38.014;-7.874;2023-04-24T11:25:43;2.13;;;1.02;;
60704;SDS011;46545;38.014;-7.874;2023-04-24T11:27:44;2.65;;;1.30;;
60704;SDS011;46545;38.014;-7.874;2023-04-24T11:29:58;3.00;;;0.50;;
60704;SDS011;46545;38.014;-7.874;2023-04-24T11:32:13;4.80;;;0.90;;
60704;SDS011;46545;38.014;-7.874;2023-04-24T11:34:14;1.23;;;0.52;;
60704;SDS011;46545;38.014;-7.874;2023-04-24T11:36:15;1.40;;;0.52;;
60704;SDS011;46545;38.014;-7.874;2023-04-24T11:38:15;2.08;;;0.63;;
60704;SDS011;46545;38.014;-7.874;2023-04-24T11:40:18;0.95;;;0.57;;
60704;SDS011;46545;38.014;-7.874;2023-04-24T11:42:23;2.17;;;0.70;;
60704;SDS011;46545;38.014;-7.874;2023-04-24T11:44:24;1.75;;;0.60;;
60704;SDS011;46545;38.014;-7.874;2023-04-24T11:46:28;2.22;;;0.60;;
60704;SDS011;46545;38.014;-7.874;2023-04-24T11:48:29;3.22;;;0.95;;
60704;SDS011;46545;38.014;-7.874;2023-04-24T11:50:29;3.00;;;0.88;;
60704;SDS011;46545;38.014;-7.874;2023-04-24T11:52:30;3.92;;;0.80;;
60704;SDS011;46545;38.014;-7.874;2023-04-24T11:54:31;4.63;;;0.80;;
60704;SDS011;46545;38.014;-7.874;2023-04-24T11:56:31;2.88;;;0.85;;
60704;SDS011;46545;38.014;-7.874;2023-04-24T11:58:38;2.00;;;0.63;;
60704;SDS011;46545;38.014;-7.874;2023-04-24T12:00:39;2.78;;;0.60;;
60704;SDS011;46545;38.014;-7.874;2023-04-24T12:02:39;2.00;;;0.70;;
60704;SDS011;46545;38.014;-7.874;2023-04-24T12:04:40;2.97;;;0.80;;
60704;SDS011;46545;38.014;-7.874;2023-04-24T12:07:02;1.58;;;0.73;;
60704;SDS011;46545;38.014;-7.874;2023-04-24T12:09:02;1.58;;;0.80;;